sensor_id;sensor_type;location;lat;lon;timestamp;pressure;altitude;pressure_sealevel;temperature;humidity
6952;BME280;3515;50.138;8.502;2022-10-31T00:00:18;102210;;;9.9;92.3
6952;BME280;3515;50.138;8.502;2022-10-31T00:02:43;102190;;;10.1;92.4
6952;BME280;3515;50.138;8.502;2022-10-31T00:05:08;102190;;;10.0;92.9
6952;BME280;3515;50.138;8.502;2022-10-31T00:07:34;102180;;;10.0;92.9
6952;BME280;3515;50.138;8.502;2022-10-31T00:10:06;102180;;;10.1;92.9
6952;BME280;3515;50.138;8.502;2022-10-31T00:12:29;102190;;;10.1;92.9
6952;BME280;3515;50.138;8.502;2022-10-31T00:14:55;102180;;;10.1;92.9
6952;BME280;3515;50.138;8.502;2022-10-31T00:17:20;102190;;;10.0;92.9
6952;BME280;3515;50.138;8.502;2022-10-31T00:19:45;102210;;;9.9;92.9
6952;BME280;3515;50.138;8.502;2022-10-31T00:22:11;102190;;;9.9;92.9
6952;BME280;3515;50.138;8.502;2022-10-31T00:24:36;102200;;;9.9;92.9
6952;BME280;3515;50.138;8.502;2022-10-31T00:27:01;102200;;;10.1;92.9
6952;BME280;3515;50.138;8.502;2022-10-31T00:29:27;102190;;;10.1;92.9
6952;BME280;3515;50.138;8.502;2022-10-31T00:31:52;102180;;;10.1;92.9
6952;BME280;3515;50.138;8.502;2022-10-31T00:34:17;102190;;;10.1;92.9
6952;BME280;3515;50.138;8.502;2022-10-31T00:36:43;102180;;;10.1;92.9
6952;BME280;3515;50.138;8.502;2022-10-31T00:39:08;102210;;;10.0;92.9
6952;BME280;3515;50.138;8.502;2022-10-31T00:41:33;102200;;;10.1;92.9
6952;BME280;3515;50.138;8.502;2022-10-31T00:43:59;102200;;;10.1;92.9
6952;BME280;3515;50.138;8.502;2022-10-31T00:46:24;102210;;;10.1;92.9
6952;BME280;3515;50.138;8.502;2022-10-31T00:48:49;102220;;;10.1;92.9
6952;BME280;3515;50.138;8.502;2022-10-31T00:51:15;102200;;;10.1;92.9
6952;BME280;3515;50.138;8.502;2022-10-31T00:53:40;102220;;;10.2;92.9
6952;BME280;3515;50.138;8.502;2022-10-31T00:56:06;102200;;;10.1;92.9
6952;BME280;3515;50.138;8.502;2022-10-31T00:58:31;102200;;;10.1;92.9
6952;BME280;3515;50.138;8.502;2022-10-31T01:00:56;102210;;;10.1;92.9
6952;BME280;3515;50.138;8.502;2022-10-31T01:03:22;102180;;;10.1;92.9
6952;BME280;3515;50.138;8.502;2022-10-31T01:05:56;102190;;;10.1;92.9
6952;BME280;3515;50.138;8.502;2022-10-31T01:08:13;102210;;;10.1;92.9
6952;BME280;3515;50.138;8.502;2022-10-31T01:10:38;102200;;;10.1;92.9
6952;BME280;3515;50.138;8.502;2022-10-31T01:13:03;102210;;;10.1;92.9
6952;BME280;3515;50.138;8.502;2022-10-31T01:15:29;102200;;;10.1;92.9
6952;BME280;3515;50.138;8.502;2022-10-31T01:17:54;102180;;;10.0;92.9
6952;BME280;3515;50.138;8.502;2022-10-31T01:20:20;102200;;;10.0;92.9
6952;BME280;3515;50.138;8.502;2022-10-31T01:22:45;102190;;;10.0;92.9
6952;BME280;3515;50.138;8.502;2022-10-31T01:25:10;102200;;;10.0;92.9
6952;BME280;3515;50.138;8.502;2022-10-31T01:27:35;102190;;;10.0;92.9
6952;BME280;3515;50.138;8.502;2022-10-31T01:30:01;102210;;;9.9;92.9
6952;BME280;3515;50.138;8.502;2022-10-31T01:32:26;102220;;;9.9;92.9
6952;BME280;3515;50.138;8.502;2022-10-31T01:34:51;102200;;;9.9;92.9
6952;BME280;3515;50.138;8.502;2022-10-31T01:37:17;102200;;;9.9;92.9
6952;BME280;3515;50.138;8.502;2022-10-31T01:39:42;102210;;;9.8;92.9
6952;BME280;3515;50.138;8.502;2022-10-31T01:42:09;102190;;;9.8;92.9
6952;BME280;3515;50.138;8.502;2022-10-31T01:46:59;102190;;;9.9;92.9
6952;BME280;3515;50.138;8.502;2022-10-31T01:49:24;102190;;;9.8;92.9
6952;BME280;3515;50.138;8.502;2022-10-31T01:51:50;102190;;;9.8;92.9
6952;BME280;3515;50.138;8.502;2022-10-31T01:54:15;102190;;;9.8;92.9
6952;BME280;3515;50.138;8.502;2022-10-31T01:56:40;102180;;;9.8;92.9
6952;BME280;3515;50.138;8.502;2022-10-31T01:59:05;102200;;;9.8;92.9
6952;BME280;3515;50.138;8.502;2022-10-31T02:01:30;102190;;;9.8;92.9
6952;BME280;3515;50.138;8.502;2022-10-31T02:03:55;102200;;;9.8;92.9
6952;BME280;3515;50.138;8.502;2022-10-31T02:06:24;102180;;;9.8;92.9
6952;BME280;3515;50.138;8.502;2022-10-31T02:08:46;102190;;;9.8;92.9
6952;BME280;3515;50.138;8.502;2022-10-31T02:11:11;102160;;;9.8;92.9
6952;BME280;3515;50.138;8.502;2022-10-31T02:13:37;102190;;;9.8;92.9
6952;BME280;3515;50.138;8.502;2022-10-31T02:16:02;102200;;;9.8;92.9
6952;BME280;3515;50.138;8.502;2022-10-31T02:18:28;102180;;;9.7;92.9
6952;BME280;3515;50.138;8.502;2022-10-31T02:20:58;102180;;;9.8;92.9
6952;BME280;3515;50.138;8.502;2022-10-31T02:23:26;102180;;;9.7;92.9
6952;BME280;3515;50.138;8.502;2022-10-31T02:25:56;102180;;;9.7;92.9
6952;BME280;3515;50.138;8.502;2022-10-31T02:28:21;102180;;;9.7;92.9
6952;BME280;3515;50.138;8.502;2022-10-31T02:30:37;102180;;;9.7;92.9
6952;BME280;3515;50.138;8.502;2022-10-31T02:33:07;102170;;;9.7;92.9
6952;BME280;3515;50.138;8.502;2022-10-31T02:35:30;102180;;;9.7;92.9
6952;BME280;3515;50.138;8.502;2022-10-31T02:37:51;102200;;;9.7;92.9
6952;BME280;3515;50.138;8.502;2022-10-31T02:40:17;102190;;;9.6;92.9
6952;BME280;3515;50.138;8.502;2022-10-31T02:42:44;102190;;;9.6;92.9
6952;BME280;3515;50.138;8.502;2022-10-31T02:45:07;102170;;;9.6;92.9
6952;BME280;3515;50.138;8.502;2022-10-31T02:47:33;102200;;;9.7;92.9
6952;BME280;3515;50.138;8.502;2022-10-31T02:49:58;102210;;;9.7;92.9
6952;BME280;3515;50.138;8.502;2022-10-31T02:52:23;102210;;;9.7;92.9
6952;BME280;3515;50.138;8.502;2022-10-31T02:54:48;102180;;;9.7;92.9
6952;BME280;3515;50.138;8.502;2022-10-31T02:57:13;102210;;;9.7;92.9
6952;BME280;3515;50.138;8.502;2022-10-31T02:59:39;102210;;;9.6;92.9
6952;BME280;3515;50.138;8.502;2022-10-31T03:02:15;102180;;;9.6;93.4
6952;BME280;3515;50.138;8.502;2022-10-31T03:04:42;102200;;;9.6;92.9
6952;BME280;3515;50.138;8.502;2022-10-31T03:07:01;102200;;;9.6;93.4
6952;BME280;3515;50.138;8.502;2022-10-31T03:09:25;102190;;;9.6;92.9
6952;BME280;3515;50.138;8.502;2022-10-31T03:11:52;102190;;;9.6;93.4
6952;BME280;3515;50.138;8.502;2022-10-31T03:14:17;102180;;;9.6;93.4
6952;BME280;3515;50.138;8.502;2022-10-31T03:16:43;102200;;;9.6;93.4
6952;BME280;3515;50.138;8.502;2022-10-31T03:19:06;102200;;;9.6;93.4
6952;BME280;3515;50.138;8.502;2022-10-31T03:21:32;102180;;;9.6;93.4
6952;BME280;3515;50.138;8.502;2022-10-31T03:23:56;102180;;;9.6;93.4
6952;BME280;3515;50.138;8.502;2022-10-31T03:26:22;102190;;;9.6;93.4
6952;BME280;3515;50.138;8.502;2022-10-31T03:28:49;102150;;;9.5;93.4
6952;BME280;3515;50.138;8.502;2022-10-31T03:31:13;102170;;;9.4;93.4
6952;BME280;3515;50.138;8.502;2022-10-31T03:33:38;102190;;;9.6;93.4
6952;BME280;3515;50.138;8.502;2022-10-31T03:36:04;102160;;;9.7;93.4
6952;BME280;3515;50.138;8.502;2022-10-31T03:38:29;102170;;;9.7;93.4
6952;BME280;3515;50.138;8.502;2022-10-31T03:40:54;102170;;;9.6;93.4
6952;BME280;3515;50.138;8.502;2022-10-31T03:43:21;102150;;;9.6;93.4
6952;BME280;3515;50.138;8.502;2022-10-31T03:45:45;102170;;;9.5;93.4
6952;BME280;3515;50.138;8.502;2022-10-31T03:48:10;102150;;;9.4;93.4
6952;BME280;3515;50.138;8.502;2022-10-31T03:50:37;102170;;;9.4;93.4
6952;BME280;3515;50.138;8.502;2022-10-31T03:53:01;102160;;;9.4;93.4
6952;BME280;3515;50.138;8.502;2022-10-31T03:55:26;102170;;;9.4;93.4
6952;BME280;3515;50.138;8.502;2022-10-31T03:57:53;102150;;;9.4;93.4
6952;BME280;3515;50.138;8.502;2022-10-31T04:00:16;102150;;;9.4;93.4
6952;BME280;3515;50.138;8.502;2022-10-31T04:02:50;102170;;;9.4;93.4
6952;BME280;3515;50.138;8.502;2022-10-31T04:05:07;102150;;;9.4;93.4
6952;BME280;3515;50.138;8.502;2022-10-31T04:07:34;102160;;;9.4;93.4
6952;BME280;3515;50.138;8.502;2022-10-31T04:09:58;102150;;;9.3;93.4
6952;BME280;3515;50.138;8.502;2022-10-31T04:12:23;102150;;;9.3;93.4
6952;BME280;3515;50.138;8.502;2022-10-31T04:14:48;102150;;;9.3;93.4
6952;BME280;3515;50.138;8.502;2022-10-31T04:17:15;102170;;;9.3;93.4
6952;BME280;3515;50.138;8.502;2022-10-31T04:19:39;102140;;;9.2;93.4
6952;BME280;3515;50.138;8.502;2022-10-31T04:22:04;102150;;;9.2;93.4
6952;BME280;3515;50.138;8.502;2022-10-31T04:24:30;102170;;;9.2;93.4
6952;BME280;3515;50.138;8.502;2022-10-31T04:26:55;102170;;;9.2;93.4
6952;BME280;3515;50.138;8.502;2022-10-31T04:29:20;102190;;;9.1;93.4
6952;BME280;3515;50.138;8.502;2022-10-31T04:31:46;102180;;;9.2;93.4
6952;BME280;3515;50.138;8.502;2022-10-31T04:34:11;102190;;;9.2;93.4
6952;BME280;3515;50.138;8.502;2022-10-31T04:36:36;102180;;;9.3;93.4
6952;BME280;3515;50.138;8.502;2022-10-31T04:39:02;102200;;;9.3;93.4
6952;BME280;3515;50.138;8.502;2022-10-31T04:41:27;102210;;;9.3;93.4
6952;BME280;3515;50.138;8.502;2022-10-31T04:43:52;102200;;;9.3;93.4
6952;BME280;3515;50.138;8.502;2022-10-31T04:46:18;102210;;;9.3;93.4
6952;BME280;3515;50.138;8.502;2022-10-31T04:48:43;102190;;;9.3;93.4
6952;BME280;3515;50.138;8.502;2022-10-31T04:51:08;102210;;;9.3;93.4
6952;BME280;3515;50.138;8.502;2022-10-31T04:53:33;102190;;;9.3;93.4
6952;BME280;3515;50.138;8.502;2022-10-31T04:55:59;102200;;;9.3;93.4
6952;BME280;3515;50.138;8.502;2022-10-31T04:58:24;102180;;;9.3;93.4
6952;BME280;3515;50.138;8.502;2022-10-31T05:00:51;102190;;;9.4;93.4
6952;BME280;3515;50.138;8.502;2022-10-31T05:03:15;102210;;;9.4;93.4
6952;BME280;3515;50.138;8.502;2022-10-31T05:05:41;102160;;;9.4;93.4
6952;BME280;3515;50.138;8.502;2022-10-31T05:08:05;102180;;;9.4;93.4
6952;BME280;3515;50.138;8.502;2022-10-31T05:10:31;102180;;;9.4;93.4
6952;BME280;3515;50.138;8.502;2022-10-31T05:12:57;102180;;;9.4;93.4
6952;BME280;3515;50.138;8.502;2022-10-31T05:15:22;102170;;;9.4;93.4
6952;BME280;3515;50.138;8.502;2022-10-31T05:17:47;102170;;;9.4;93.4
6952;BME280;3515;50.138;8.502;2022-10-31T05:20:19;102180;;;9.4;93.4
6952;BME280;3515;50.138;8.502;2022-10-31T05:22:43;102190;;;9.4;93.4
6952;BME280;3515;50.138;8.502;2022-10-31T05:25:08;102170;;;9.4;93.4
6952;BME280;3515;50.138;8.502;2022-10-31T05:27:33;102170;;;9.4;93.4
6952;BME280;3515;50.138;8.502;2022-10-31T05:29:59;102160;;;9.4;93.4
6952;BME280;3515;50.138;8.502;2022-10-31T05:32:24;102170;;;9.4;93.4
6952;BME280;3515;50.138;8.502;2022-10-31T05:34:49;102160;;;9.4;93.4
6952;BME280;3515;50.138;8.502;2022-10-31T05:37:14;102160;;;9.6;93.4
6952;BME280;3515;50.138;8.502;2022-10-31T05:39:40;102170;;;9.6;93.5
6952;BME280;3515;50.138;8.502;2022-10-31T05:42:05;102180;;;9.7;93.5
6952;BME280;3515;50.138;8.502;2022-10-31T05:44:31;102170;;;9.7;93.4
6952;BME280;3515;50.138;8.502;2022-10-31T05:46:56;102170;;;9.7;93.4
6952;BME280;3515;50.138;8.502;2022-10-31T05:49:21;102180;;;9.6;93.4
6952;BME280;3515;50.138;8.502;2022-10-31T05:51:46;102160;;;9.6;93.4
6952;BME280;3515;50.138;8.502;2022-10-31T05:54:12;102150;;;9.6;93.4
6952;BME280;3515;50.138;8.502;2022-10-31T05:56:37;102160;;;9.6;93.4
6952;BME280;3515;50.138;8.502;2022-10-31T05:59:02;102160;;;9.6;93.4
6952;BME280;3515;50.138;8.502;2022-10-31T06:01:28;102150;;;9.7;93.4
6952;BME280;3515;50.138;8.502;2022-10-31T06:03:53;102150;;;9.7;93.4
6952;BME280;3515;50.138;8.502;2022-10-31T06:06:19;102140;;;9.6;93.4
6952;BME280;3515;50.138;8.502;2022-10-31T06:08:44;102170;;;9.6;93.4
6952;BME280;3515;50.138;8.502;2022-10-31T06:11:09;102170;;;9.6;93.4
6952;BME280;3515;50.138;8.502;2022-10-31T06:13:35;102160;;;9.5;93.4
6952;BME280;3515;50.138;8.502;2022-10-31T06:16:00;102150;;;9.6;93.4
6952;BME280;3515;50.138;8.502;2022-10-31T06:18:25;102160;;;9.6;93.4
6952;BME280;3515;50.138;8.502;2022-10-31T06:20:51;102150;;;9.6;93.4
6952;BME280;3515;50.138;8.502;2022-10-31T06:23:16;102160;;;9.6;93.4
6952;BME280;3515;50.138;8.502;2022-10-31T06:25:41;102160;;;9.7;93.4
6952;BME280;3515;50.138;8.502;2022-10-31T06:28:07;102150;;;9.8;93.4
6952;BME280;3515;50.138;8.502;2022-10-31T06:30:32;102140;;;9.8;93.4
6952;BME280;3515;50.138;8.502;2022-10-31T06:33:01;102150;;;9.8;93.4
6952;BME280;3515;50.138;8.502;2022-10-31T06:35:23;102150;;;9.8;93.4
6952;BME280;3515;50.138;8.502;2022-10-31T06:37:51;102140;;;9.8;93.4
6952;BME280;3515;50.138;8.502;2022-10-31T06:40:13;102130;;;9.8;93.4
6952;BME280;3515;50.138;8.502;2022-10-31T06:42:38;102150;;;9.9;93.4
6952;BME280;3515;50.138;8.502;2022-10-31T06:45:04;102160;;;9.9;93.4
6952;BME280;3515;50.138;8.502;2022-10-31T06:47:29;102170;;;10.1;93.4
6952;BME280;3515;50.138;8.502;2022-10-31T06:49:54;102160;;;10.1;93.4
6952;BME280;3515;50.138;8.502;2022-10-31T06:52:20;102160;;;10.1;93.5
6952;BME280;3515;50.138;8.502;2022-10-31T06:54:45;102150;;;10.2;93.5
6952;BME280;3515;50.138;8.502;2022-10-31T06:57:10;102160;;;10.2;93.5
6952;BME280;3515;50.138;8.502;2022-10-31T06:59:36;102180;;;10.4;93.5
6952;BME280;3515;50.138;8.502;2022-10-31T07:02:01;102170;;;10.4;93.5
6952;BME280;3515;50.138;8.502;2022-10-31T07:04:26;102160;;;10.5;93.5
6952;BME280;3515;50.138;8.502;2022-10-31T07:06:51;102180;;;10.6;93.5
6952;BME280;3515;50.138;8.502;2022-10-31T07:09:17;102190;;;10.6;93.5
6952;BME280;3515;50.138;8.502;2022-10-31T07:11:42;102180;;;10.8;93.6
6952;BME280;3515;50.138;8.502;2022-10-31T07:14:07;102180;;;10.8;93.6
6952;BME280;3515;50.138;8.502;2022-10-31T07:16:32;102180;;;11.0;93.6
6952;BME280;3515;50.138;8.502;2022-10-31T07:18:58;102170;;;11.1;93.6
6952;BME280;3515;50.138;8.502;2022-10-31T07:21:23;102160;;;11.1;93.6
6952;BME280;3515;50.138;8.502;2022-10-31T07:23:48;102180;;;11.1;94.1
6952;BME280;3515;50.138;8.502;2022-10-31T07:26:14;102170;;;11.2;94.1
6952;BME280;3515;50.138;8.502;2022-10-31T07:28:39;102170;;;11.4;94.2
6952;BME280;3515;50.138;8.502;2022-10-31T07:31:04;102180;;;11.6;94.1
6952;BME280;3515;50.138;8.502;2022-10-31T07:33:29;102170;;;11.6;94.2
6952;BME280;3515;50.138;8.502;2022-10-31T07:35:55;102190;;;11.7;94.2
6952;BME280;3515;50.138;8.502;2022-10-31T07:38:20;102190;;;11.8;94.2
6952;BME280;3515;50.138;8.502;2022-10-31T07:40:49;102190;;;11.8;94.2
6952;BME280;3515;50.138;8.502;2022-10-31T07:43:11;102170;;;11.8;94.2
6952;BME280;3515;50.138;8.502;2022-10-31T07:45:36;102180;;;11.9;93.7
6952;BME280;3515;50.138;8.502;2022-10-31T07:48:01;102180;;;12.1;92.7
6952;BME280;3515;50.138;8.502;2022-10-31T07:50:27;102190;;;12.2;92.2
6952;BME280;3515;50.138;8.502;2022-10-31T07:52:59;102190;;;12.3;91.7
6952;BME280;3515;50.138;8.502;2022-10-31T07:55:20;102190;;;12.6;91.2
6952;BME280;3515;50.138;8.502;2022-10-31T07:57:55;102190;;;12.7;90.7
6952;BME280;3515;50.138;8.502;2022-10-31T08:00:15;102160;;;12.9;90.2
6952;BME280;3515;50.138;8.502;2022-10-31T08:02:40;102170;;;13.1;89.2
6952;BME280;3515;50.138;8.502;2022-10-31T08:05:05;102180;;;13.2;88.7
6952;BME280;3515;50.138;8.502;2022-10-31T08:07:35;102170;;;13.4;88.7
6952;BME280;3515;50.138;8.502;2022-10-31T08:09:56;102180;;;13.2;89.2
6952;BME280;3515;50.138;8.502;2022-10-31T08:12:21;102180;;;13.4;89.2
6952;BME280;3515;50.138;8.502;2022-10-31T08:14:46;102190;;;13.4;89.2
6952;BME280;3515;50.138;8.502;2022-10-31T08:17:11;102170;;;13.3;89.7
6952;BME280;3515;50.138;8.502;2022-10-31T08:19:37;102170;;;13.4;89.1
6952;BME280;3515;50.138;8.502;2022-10-31T08:22:02;102180;;;13.6;89.2
6952;BME280;3515;50.138;8.502;2022-10-31T08:24:27;102160;;;13.8;88.7
6952;BME280;3515;50.138;8.502;2022-10-31T08:26:52;102170;;;13.9;88.2
6952;BME280;3515;50.138;8.502;2022-10-31T08:29:18;102170;;;14.0;88.2
6952;BME280;3515;50.138;8.502;2022-10-31T08:31:43;102150;;;14.0;88.1
6952;BME280;3515;50.138;8.502;2022-10-31T08:34:08;102160;;;14.0;88.1
6952;BME280;3515;50.138;8.502;2022-10-31T08:36:33;102170;;;13.9;88.1
6952;BME280;3515;50.138;8.502;2022-10-31T08:38:59;102190;;;14.0;88.6
6952;BME280;3515;50.138;8.502;2022-10-31T08:41:24;102160;;;13.9;88.6
6952;BME280;3515;50.138;8.502;2022-10-31T08:43:49;102170;;;13.9;89.1
6952;BME280;3515;50.138;8.502;2022-10-31T08:46:14;102180;;;13.9;89.1
6952;BME280;3515;50.138;8.502;2022-10-31T08:48:40;102160;;;13.8;89.6
6952;BME280;3515;50.138;8.502;2022-10-31T08:51:05;102160;;;13.8;89.6
6952;BME280;3515;50.138;8.502;2022-10-31T08:53:30;102170;;;13.9;89.5
6952;BME280;3515;50.138;8.502;2022-10-31T08:55:59;102170;;;13.8;89.5
6952;BME280;3515;50.138;8.502;2022-10-31T08:58:24;102160;;;13.9;89.5
6952;BME280;3515;50.138;8.502;2022-10-31T09:00:50;102140;;;14.1;88.6
6952;BME280;3515;50.138;8.502;2022-10-31T09:03:16;102150;;;14.4;87.6
6952;BME280;3515;50.138;8.502;2022-10-31T09:05:40;102150;;;14.5;87.1
6952;BME280;3515;50.138;8.502;2022-10-31T09:08:06;102160;;;14.6;86.6
6952;BME280;3515;50.138;8.502;2022-10-31T09:10:31;102150;;;14.6;86.6
6952;BME280;3515;50.138;8.502;2022-10-31T09:12:56;102140;;;14.7;86.6
6952;BME280;3515;50.138;8.502;2022-10-31T09:15:21;102130;;;14.5;87.1
6952;BME280;3515;50.138;8.502;2022-10-31T09:17:47;102130;;;14.6;87.0
6952;BME280;3515;50.138;8.502;2022-10-31T09:20:12;102120;;;14.7;87.1
6952;BME280;3515;50.138;8.502;2022-10-31T09:22:37;102150;;;14.7;87.0
6952;BME280;3515;50.138;8.502;2022-10-31T09:25:02;102140;;;14.7;87.0
6952;BME280;3515;50.138;8.502;2022-10-31T09:27:28;102120;;;14.7;86.5
6952;BME280;3515;50.138;8.502;2022-10-31T09:29:53;102120;;;14.7;86.6
6952;BME280;3515;50.138;8.502;2022-10-31T09:32:18;102150;;;14.7;86.6
6952;BME280;3515;50.138;8.502;2022-10-31T09:34:43;102130;;;14.7;86.6
6952;BME280;3515;50.138;8.502;2022-10-31T09:37:09;102120;;;14.7;87.1
6952;BME280;3515;50.138;8.502;2022-10-31T09:39:34;102120;;;14.7;87.1
6952;BME280;3515;50.138;8.502;2022-10-31T09:44:26;102130;;;14.8;86.5
6952;BME280;3515;50.138;8.502;2022-10-31T09:46:51;102140;;;15.0;85.6
6952;BME280;3515;50.138;8.502;2022-10-31T09:49:22;102150;;;15.1;85.6
6952;BME280;3515;50.138;8.502;2022-10-31T09:51:42;102130;;;15.2;85.6
6952;BME280;3515;50.138;8.502;2022-10-31T09:54:06;102150;;;15.2;85.0
6952;BME280;3515;50.138;8.502;2022-10-31T09:56:31;102120;;;15.2;85.0
6952;BME280;3515;50.138;8.502;2022-10-31T09:58:57;102130;;;15.2;85.0
6952;BME280;3515;50.138;8.502;2022-10-31T10:01:28;102130;;;15.3;84.5
6952;BME280;3515;50.138;8.502;2022-10-31T10:03:46;102110;;;15.4;84.5
6952;BME280;3515;50.138;8.502;2022-10-31T10:06:13;102120;;;15.2;85.0
6952;BME280;3515;50.138;8.502;2022-10-31T10:08:37;102120;;;15.2;85.0
6952;BME280;3515;50.138;8.502;2022-10-31T10:11:08;102130;;;15.3;85.0
6952;BME280;3515;50.138;8.502;2022-10-31T10:13:32;102100;;;15.4;84.0
6952;BME280;3515;50.138;8.502;2022-10-31T10:15:59;102100;;;15.4;84.0
6952;BME280;3515;50.138;8.502;2022-10-31T10:18:22;102100;;;15.5;84.5
6952;BME280;3515;50.138;8.502;2022-10-31T10:20:44;102110;;;15.6;84.5
6952;BME280;3515;50.138;8.502;2022-10-31T10:23:17;102120;;;15.6;84.5
6952;BME280;3515;50.138;8.502;2022-10-31T10:25:34;102100;;;15.5;84.5
6952;BME280;3515;50.138;8.502;2022-10-31T10:28:04;102100;;;15.6;84.5
6952;BME280;3515;50.138;8.502;2022-10-31T10:30:26;102110;;;15.6;84.5
6952;BME280;3515;50.138;8.502;2022-10-31T10:32:50;102100;;;15.6;84.5
6952;BME280;3515;50.138;8.502;2022-10-31T10:35:22;102110;;;15.7;85.0
6952;BME280;3515;50.138;8.502;2022-10-31T10:37:45;102080;;;15.8;84.5
6952;BME280;3515;50.138;8.502;2022-10-31T10:40:12;102110;;;15.8;84.5
6952;BME280;3515;50.138;8.502;2022-10-31T10:42:35;102110;;;15.9;84.5
6952;BME280;3515;50.138;8.502;2022-10-31T10:45:04;102100;;;15.9;84.5
6952;BME280;3515;50.138;8.502;2022-10-31T10:47:26;102090;;;16.0;84.5
6952;BME280;3515;50.138;8.502;2022-10-31T10:49:51;102080;;;16.1;84.5
6952;BME280;3515;50.138;8.502;2022-10-31T10:52:25;102080;;;16.1;84.5
6952;BME280;3515;50.138;8.502;2022-10-31T10:54:45;102080;;;16.2;84.0
6952;BME280;3515;50.138;8.502;2022-10-31T10:57:12;102070;;;16.2;83.5
6952;BME280;3515;50.138;8.502;2022-10-31T10:59:32;102080;;;16.4;83.5
6952;BME280;3515;50.138;8.502;2022-10-31T11:01:57;102090;;;16.4;83.5
6952;BME280;3515;50.138;8.502;2022-10-31T11:04:26;102070;;;16.5;83.5
6952;BME280;3515;50.138;8.502;2022-10-31T11:06:56;102070;;;16.4;83.0
6952;BME280;3515;50.138;8.502;2022-10-31T11:09:14;102070;;;16.6;83.0
6952;BME280;3515;50.138;8.502;2022-10-31T11:11:38;102060;;;16.6;83.0
6952;BME280;3515;50.138;8.502;2022-10-31T11:14:04;102050;;;16.7;83.0
6952;BME280;3515;50.138;8.502;2022-10-31T11:16:31;102060;;;16.9;82.5
6952;BME280;3515;50.138;8.502;2022-10-31T11:18:54;102030;;;16.9;82.5
6952;BME280;3515;50.138;8.502;2022-10-31T11:21:20;102040;;;17.1;82.0
6952;BME280;3515;50.138;8.502;2022-10-31T11:23:45;102060;;;17.2;82.0
6952;BME280;3515;50.138;8.502;2022-10-31T11:26:18;102050;;;17.3;81.5
6952;BME280;3515;50.138;8.502;2022-10-31T11:28:35;102050;;;17.3;81.5
6952;BME280;3515;50.138;8.502;2022-10-31T11:31:01;102050;;;17.5;81.0
6952;BME280;3515;50.138;8.502;2022-10-31T11:33:28;102050;;;17.6;80.5
6952;BME280;3515;50.138;8.502;2022-10-31T11:35:51;102020;;;17.7;80.5
6952;BME280;3515;50.138;8.502;2022-10-31T11:38:18;102030;;;17.7;81.0
6952;BME280;3515;50.138;8.502;2022-10-31T11:40:51;102020;;;17.7;79.9
6952;BME280;3515;50.138;8.502;2022-10-31T11:43:12;101980;;;17.7;79.9
6952;BME280;3515;50.138;8.502;2022-10-31T11:45:32;101990;;;18.0;79.5
6952;BME280;3515;50.138;8.502;2022-10-31T11:47:57;102000;;;18.1;77.4
6952;BME280;3515;50.138;8.502;2022-10-31T11:50:23;102010;;;18.2;77.4
6952;BME280;3515;50.138;8.502;2022-10-31T11:52:48;102010;;;18.2;77.4
6952;BME280;3515;50.138;8.502;2022-10-31T11:55:14;102000;;;18.4;77.5
6952;BME280;3515;50.138;8.502;2022-10-31T11:57:42;101990;;;18.4;75.9
6952;BME280;3515;50.138;8.502;2022-10-31T12:00:05;101990;;;18.3;75.9
6952;BME280;3515;50.138;8.502;2022-10-31T12:02:29;101980;;;18.4;75.4
6952;BME280;3515;50.138;8.502;2022-10-31T12:04:58;101990;;;18.5;74.9
6952;BME280;3515;50.138;8.502;2022-10-31T12:07:19;102000;;;18.5;74.4
6952;BME280;3515;50.138;8.502;2022-10-31T12:09:44;101960;;;18.4;74.9
6952;BME280;3515;50.138;8.502;2022-10-31T12:12:24;101980;;;18.4;74.5
6952;BME280;3515;50.138;8.502;2022-10-31T12:14:37;101970;;;18.5;73.9
6952;BME280;3515;50.138;8.502;2022-10-31T12:17:01;101970;;;18.6;73.9
6952;BME280;3515;50.138;8.502;2022-10-31T12:19:32;101980;;;18.8;73.4
6952;BME280;3515;50.138;8.502;2022-10-31T12:21:58;101980;;;18.8;73.9
6952;BME280;3515;50.138;8.502;2022-10-31T12:24:28;101960;;;18.7;73.4
6952;BME280;3515;50.138;8.502;2022-10-31T12:26:42;101990;;;18.8;72.9
6952;BME280;3515;50.138;8.502;2022-10-31T12:29:13;101980;;;19.0;72.8
6952;BME280;3515;50.138;8.502;2022-10-31T12:31:35;101970;;;19.1;72.8
6952;BME280;3515;50.138;8.502;2022-10-31T12:34:00;101970;;;19.0;71.8
6952;BME280;3515;50.138;8.502;2022-10-31T12:36:32;101970;;;19.2;71.3
6952;BME280;3515;50.138;8.502;2022-10-31T12:38:54;101980;;;19.1;72.3
6952;BME280;3515;50.138;8.502;2022-10-31T12:41:19;101950;;;19.1;71.3
6952;BME280;3515;50.138;8.502;2022-10-31T12:43:42;101950;;;19.2;71.3
6952;BME280;3515;50.138;8.502;2022-10-31T12:46:04;101930;;;19.4;71.9
6952;BME280;3515;50.138;8.502;2022-10-31T12:50:59;101900;;;19.6;71.9
6952;BME280;3515;50.138;8.502;2022-10-31T12:53:31;101910;;;19.6;71.9
6952;BME280;3515;50.138;8.502;2022-10-31T12:55:55;101920;;;19.5;71.9
6952;BME280;3515;50.138;8.502;2022-10-31T12:58:16;101900;;;19.6;71.5
6952;BME280;3515;50.138;8.502;2022-10-31T13:00:41;101910;;;19.5;71.5
6952;BME280;3515;50.138;8.502;2022-10-31T13:03:08;101890;;;19.4;70.9
6952;BME280;3515;50.138;8.502;2022-10-31T13:05:30;101890;;;19.6;70.9
6952;BME280;3515;50.138;8.502;2022-10-31T13:07:56;101900;;;19.7;71.4
6952;BME280;3515;50.138;8.502;2022-10-31T13:10:21;101890;;;19.5;71.9
6952;BME280;3515;50.138;8.502;2022-10-31T13:12:51;101900;;;19.4;72.5
6952;BME280;3515;50.138;8.502;2022-10-31T13:15:16;101870;;;19.4;71.5
6952;BME280;3515;50.138;8.502;2022-10-31T13:17:41;101880;;;19.2;71.5
6952;BME280;3515;50.138;8.502;2022-10-31T13:20:14;101870;;;19.1;72.0
6952;BME280;3515;50.138;8.502;2022-10-31T13:22:31;101880;;;19.1;72.5
6952;BME280;3515;50.138;8.502;2022-10-31T13:24:57;101850;;;19.0;72.5
6952;BME280;3515;50.138;8.502;2022-10-31T13:27:21;101860;;;19.0;72.5
6952;BME280;3515;50.138;8.502;2022-10-31T13:29:49;101870;;;18.8;73.0
6952;BME280;3515;50.138;8.502;2022-10-31T13:32:11;101830;;;18.9;73.0
6952;BME280;3515;50.138;8.502;2022-10-31T13:34:37;101850;;;18.8;73.0
6952;BME280;3515;50.138;8.502;2022-10-31T13:37:05;101830;;;18.8;73.5
6952;BME280;3515;50.138;8.502;2022-10-31T13:39:32;101860;;;18.6;74.0
6952;BME280;3515;50.138;8.502;2022-10-31T13:41:53;101830;;;18.6;73.5
6952;BME280;3515;50.138;8.502;2022-10-31T13:44:20;101830;;;18.5;74.0
6952;BME280;3515;50.138;8.502;2022-10-31T13:46:43;101830;;;18.5;74.0
6952;BME280;3515;50.138;8.502;2022-10-31T13:49:25;101840;;;18.6;74.0
6952;BME280;3515;50.138;8.502;2022-10-31T13:51:38;101850;;;18.6;74.0
6952;BME280;3515;50.138;8.502;2022-10-31T13:54:06;101850;;;18.4;74.5
6952;BME280;3515;50.138;8.502;2022-10-31T13:56:29;101840;;;18.4;75.0
6952;BME280;3515;50.138;8.502;2022-10-31T13:59:03;101830;;;18.3;75.5
6952;BME280;3515;50.138;8.502;2022-10-31T14:01:19;101830;;;18.2;75.5
6952;BME280;3515;50.138;8.502;2022-10-31T14:03:45;101850;;;18.2;75.0
6952;BME280;3515;50.138;8.502;2022-10-31T14:06:09;101830;;;18.2;75.5
6952;BME280;3515;50.138;8.502;2022-10-31T14:08:35;101830;;;18.2;76.0